sensor_id;sensor_type;location;lat;lon;timestamp;P1;durP1;ratioP1;P2;durP2;ratioP2
8268;SDS011;4174;48.304;16.364;2023-02-11T00:04:34;30.88;;;12.32;;
8268;SDS011;4174;48.304;16.364;2023-02-11T00:10:38;32.23;;;12.10;;
8268;SDS011;4174;48.304;16.364;2023-02-11T00:16:42;32.93;;;12.27;;
8268;SDS011;4174;48.304;16.364;2023-02-11T00:22:47;31.77;;;12.30;;
8268;SDS011;4174;48.304;16.364;2023-02-11T00:28:51;33.77;;;12.63;;
8268;SDS011;4174;48.304;16.364;2023-02-11T00:34:53;32.33;;;12.90;;
8268;SDS011;4174;48.304;16.364;2023-02-11T00:40:57;32.00;;;11.90;;
8268;SDS011;4174;48.304;16.364;2023-02-11T00:47:00;32.30;;;12.37;;
8268;SDS011;4174;48.304;16.364;2023-02-11T00:53:04;33.13;;;13.00;;
8268;SDS011;4174;48.304;16.364;2023-02-11T00:59:07;34.50;;;12.73;;
8268;SDS011;4174;48.304;16.364;2023-02-11T01:05:11;34.23;;;13.60;;
8268;SDS011;4174;48.304;16.364;2023-02-11T01:11:17;34.90;;;13.65;;
8268;SDS011;4174;48.304;16.364;2023-02-11T01:17:18;37.77;;;13.37;;
8268;SDS011;4174;48.304;16.364;2023-02-11T01:23:21;32.65;;;13.45;;
8268;SDS011;4174;48.304;16.364;2023-02-11T01:29:25;35.42;;;13.60;;
8268;SDS011;4174;48.304;16.364;2023-02-11T01:35:28;37.20;;;13.97;;
8268;SDS011;4174;48.304;16.364;2023-02-11T01:41:32;36.90;;;14.17;;
8268;SDS011;4174;48.304;16.364;2023-02-11T01:47:35;38.28;;;14.15;;
8268;SDS011;4174;48.304;16.364;2023-02-11T01:53:39;35.53;;;14.15;;
8268;SDS011;4174;48.304;16.364;2023-02-11T02:06:34;37.30;;;14.90;;
8268;SDS011;4174;48.304;16.364;2023-02-11T02:12:36;37.07;;;15.03;;
8268;SDS011;4174;48.304;16.364;2023-02-11T02:18:42;37.77;;;15.43;;
8268;SDS011;4174;48.304;16.364;2023-02-11T02:24:53;38.70;;;15.55;;
8268;SDS011;4174;48.304;16.364;2023-02-11T02:31:06;38.77;;;15.90;;
8268;SDS011;4174;48.304;16.364;2023-02-11T02:38:35;40.65;;;16.40;;
8268;SDS011;4174;48.304;16.364;2023-02-11T02:43:50;41.15;;;16.42;;
8268;SDS011;4174;48.304;16.364;2023-02-11T02:49:53;41.50;;;16.53;;
8268;SDS011;4174;48.304;16.364;2023-02-11T02:56:05;43.17;;;17.17;;
8268;SDS011;4174;48.304;16.364;2023-02-11T03:02:17;39.70;;;16.30;;
8268;SDS011;4174;48.304;16.364;2023-02-11T03:08:26;44.43;;;16.77;;
8268;SDS011;4174;48.304;16.364;2023-02-11T03:14:36;39.97;;;15.83;;
8268;SDS011;4174;48.304;16.364;2023-02-11T03:20:39;37.10;;;15.70;;
8268;SDS011;4174;48.304;16.364;2023-02-11T03:26:43;40.40;;;16.23;;
8268;SDS011;4174;48.304;16.364;2023-02-11T03:32:49;36.70;;;15.57;;
8268;SDS011;4174;48.304;16.364;2023-02-11T03:38:52;37.38;;;15.50;;
8268;SDS011;4174;48.304;16.364;2023-02-11T03:44:57;37.95;;;14.85;;
8268;SDS011;4174;48.304;16.364;2023-02-11T03:50:57;37.03;;;15.10;;
8268;SDS011;4174;48.304;16.364;2023-02-11T03:57:00;35.80;;;15.23;;
8268;SDS011;4174;48.304;16.364;2023-02-11T04:03:05;36.07;;;15.00;;
8268;SDS011;4174;48.304;16.364;2023-02-11T04:09:08;36.97;;;15.10;;
8268;SDS011;4174;48.304;16.364;2023-02-11T04:15:11;39.27;;;15.87;;
8268;SDS011;4174;48.304;16.364;2023-02-11T04:21:14;39.60;;;16.40;;
8268;SDS011;4174;48.304;16.364;2023-02-11T04:27:19;38.33;;;15.37;;
8268;SDS011;4174;48.304;16.364;2023-02-11T04:33:23;41.37;;;15.90;;
8268;SDS011;4174;48.304;16.364;2023-02-11T04:39:27;40.38;;;16.02;;
8268;SDS011;4174;48.304;16.364;2023-02-11T04:45:30;40.63;;;16.30;;
8268;SDS011;4174;48.304;16.364;2023-02-11T04:51:35;40.20;;;16.70;;
8268;SDS011;4174;48.304;16.364;2023-02-11T04:57:38;39.10;;;16.15;;
8268;SDS011;4174;48.304;16.364;2023-02-11T05:03:42;40.33;;;16.03;;
8268;SDS011;4174;48.304;16.364;2023-02-11T05:09:45;39.33;;;15.90;;
8268;SDS011;4174;48.304;16.364;2023-02-11T05:15:49;37.27;;;15.60;;
8268;SDS011;4174;48.304;16.364;2023-02-11T05:21:52;38.43;;;15.60;;
8268;SDS011;4174;48.304;16.364;2023-02-11T05:27:56;38.67;;;15.87;;
8268;SDS011;4174;48.304;16.364;2023-02-11T05:34:00;37.28;;;15.70;;
8268;SDS011;4174;48.304;16.364;2023-02-11T05:40:05;36.30;;;15.13;;
8268;SDS011;4174;48.304;16.364;2023-02-11T05:46:10;39.43;;;16.27;;
8268;SDS011;4174;48.304;16.364;2023-02-11T05:52:15;38.90;;;15.38;;
8268;SDS011;4174;48.304;16.364;2023-02-11T05:58:19;39.28;;;16.05;;
8268;SDS011;4174;48.304;16.364;2023-02-11T06:04:23;41.60;;;16.37;;
8268;SDS011;4174;48.304;16.364;2023-02-11T06:10:29;39.40;;;16.67;;
8268;SDS011;4174;48.304;16.364;2023-02-11T06:16:33;40.33;;;15.80;;
8268;SDS011;4174;48.304;16.364;2023-02-11T06:22:36;41.53;;;16.23;;
8268;SDS011;4174;48.304;16.364;2023-02-11T06:28:39;40.37;;;15.57;;
8268;SDS011;4174;48.304;16.364;2023-02-11T06:34:44;39.87;;;16.27;;
8268;SDS011;4174;48.304;16.364;2023-02-11T06:40:47;37.20;;;14.85;;
8268;SDS011;4174;48.304;16.364;2023-02-11T06:46:50;37.40;;;14.95;;
8268;SDS011;4174;48.304;16.364;2023-02-11T06:52:54;38.27;;;15.37;;
8268;SDS011;4174;48.304;16.364;2023-02-11T06:58:57;41.53;;;15.97;;
8268;SDS011;4174;48.304;16.364;2023-02-11T07:05:00;39.33;;;16.80;;
8268;SDS011;4174;48.304;16.364;2023-02-11T07:11:08;36.63;;;15.85;;
8268;SDS011;4174;48.304;16.364;2023-02-11T07:17:10;35.93;;;14.70;;
8268;SDS011;4174;48.304;16.364;2023-02-11T07:23:14;37.72;;;15.48;;
8268;SDS011;4174;48.304;16.364;2023-02-11T07:29:18;35.90;;;14.87;;
8268;SDS011;4174;48.304;16.364;2023-02-11T07:35:21;34.37;;;14.53;;
8268;SDS011;4174;48.304;16.364;2023-02-11T07:41:25;35.70;;;15.00;;
8268;SDS011;4174;48.304;16.364;2023-02-11T07:47:29;33.40;;;14.07;;
8268;SDS011;4174;48.304;16.364;2023-02-11T07:53:33;29.63;;;13.50;;
8268;SDS011;4174;48.304;16.364;2023-02-11T07:59:36;28.10;;;12.17;;
8268;SDS011;4174;48.304;16.364;2023-02-11T08:05:40;29.33;;;12.18;;
8268;SDS011;4174;48.304;16.364;2023-02-11T08:11:45;27.23;;;11.30;;
8268;SDS011;4174;48.304;16.364;2023-02-11T08:17:48;27.47;;;11.73;;
8268;SDS011;4174;48.304;16.364;2023-02-11T08:23:53;28.20;;;10.98;;
8268;SDS011;4174;48.304;16.364;2023-02-11T08:29:55;28.10;;;11.57;;
8268;SDS011;4174;48.304;16.364;2023-02-11T08:35:59;28.17;;;11.30;;
8268;SDS011;4174;48.304;16.364;2023-02-11T08:42:02;25.87;;;10.70;;
8268;SDS011;4174;48.304;16.364;2023-02-11T08:48:05;26.70;;;11.57;;
8268;SDS011;4174;48.304;16.364;2023-02-11T08:54:09;25.83;;;10.83;;
8268;SDS011;4174;48.304;16.364;2023-02-11T09:00:13;27.02;;;11.07;;
8268;SDS011;4174;48.304;16.364;2023-02-11T09:06:19;25.03;;;10.30;;
8268;SDS011;4174;48.304;16.364;2023-02-11T09:12:21;24.87;;;9.90;;
8268;SDS011;4174;48.304;16.364;2023-02-11T09:18:25;26.27;;;10.13;;
8268;SDS011;4174;48.304;16.364;2023-02-11T09:24:29;25.50;;;10.50;;
8268;SDS011;4174;48.304;16.364;2023-02-11T09:30:34;26.83;;;10.87;;
8268;SDS011;4174;48.304;16.364;2023-02-11T09:36:36;27.00;;;11.23;;
8268;SDS011;4174;48.304;16.364;2023-02-11T09:42:43;25.43;;;10.80;;
8268;SDS011;4174;48.304;16.364;2023-02-11T09:49:14;28.60;;;11.00;;
8268;SDS011;4174;48.304;16.364;2023-02-11T09:55:16;29.10;;;11.02;;
8268;SDS011;4174;48.304;16.364;2023-02-11T10:01:38;26.73;;;11.00;;
8268;SDS011;4174;48.304;16.364;2023-02-11T10:07:50;26.53;;;10.93;;
8268;SDS011;4174;48.304;16.364;2023-02-11T10:14:05;24.65;;;10.98;;
8268;SDS011;4174;48.304;16.364;2023-02-11T10:26:27;25.10;;;10.80;;
8268;SDS011;4174;48.304;16.364;2023-02-11T10:32:36;26.35;;;11.48;;
8268;SDS011;4174;48.304;16.364;2023-02-11T10:38:36;24.73;;;11.00;;
8268;SDS011;4174;48.304;16.364;2023-02-11T10:44:42;23.77;;;10.17;;
8268;SDS011;4174;48.304;16.364;2023-02-11T10:50:50;25.25;;;10.70;;
8268;SDS011;4174;48.304;16.364;2023-02-11T10:56:57;24.05;;;10.65;;
8268;SDS011;4174;48.304;16.364;2023-02-11T11:02:57;25.80;;;11.63;;
8268;SDS011;4174;48.304;16.364;2023-02-11T11:08:59;26.23;;;11.53;;
8268;SDS011;4174;48.304;16.364;2023-02-11T11:15:13;25.15;;;11.00;;
8268;SDS011;4174;48.304;16.364;2023-02-11T11:21:22;25.02;;;11.07;;
8268;SDS011;4174;48.304;16.364;2023-02-11T11:27:25;25.90;;;11.30;;
8268;SDS011;4174;48.304;16.364;2023-02-11T11:33:29;26.25;;;10.88;;
8268;SDS011;4174;48.304;16.364;2023-02-11T11:39:33;21.70;;;9.30;;
8268;SDS011;4174;48.304;16.364;2023-02-11T11:45:36;25.55;;;10.32;;
8268;SDS011;4174;48.304;16.364;2023-02-11T11:51:40;19.97;;;9.00;;
8268;SDS011;4174;48.304;16.364;2023-02-11T11:57:41;21.70;;;8.50;;
8268;SDS011;4174;48.304;16.364;2023-02-11T12:03:53;23.10;;;8.70;;
8268;SDS011;4174;48.304;16.364;2023-02-11T12:10:28;20.30;;;8.40;;
8268;SDS011;4174;48.304;16.364;2023-02-11T12:16:52;23.75;;;8.68;;
8268;SDS011;4174;48.304;16.364;2023-02-11T12:23:05;19.60;;;8.20;;
8268;SDS011;4174;48.304;16.364;2023-02-11T12:29:30;19.30;;;7.47;;
8268;SDS011;4174;48.304;16.364;2023-02-11T12:36:04;18.48;;;7.10;;
8268;SDS011;4174;48.304;16.364;2023-02-11T12:42:14;20.83;;;8.07;;
8268;SDS011;4174;48.304;16.364;2023-02-11T12:55:02;19.52;;;8.55;;
8268;SDS011;4174;48.304;16.364;2023-02-11T13:01:07;21.53;;;8.97;;
8268;SDS011;4174;48.304;16.364;2023-02-11T13:07:13;22.00;;;9.18;;
8268;SDS011;4174;48.304;16.364;2023-02-11T13:13:17;22.83;;;9.35;;
8268;SDS011;4174;48.304;16.364;2023-02-11T13:19:37;23.37;;;9.90;;
8268;SDS011;4174;48.304;16.364;2023-02-11T13:32:07;22.27;;;9.80;;
8268;SDS011;4174;48.304;16.364;2023-02-11T13:38:16;22.90;;;9.90;;
8268;SDS011;4174;48.304;16.364;2023-02-11T13:44:21;22.77;;;9.77;;
8268;SDS011;4174;48.304;16.364;2023-02-11T13:50:24;23.67;;;10.27;;
8268;SDS011;4174;48.304;16.364;2023-02-11T13:56:29;21.00;;;9.17;;
8268;SDS011;4174;48.304;16.364;2023-02-11T14:02:31;21.60;;;9.03;;
8268;SDS011;4174;48.304;16.364;2023-02-11T14:08:56;21.73;;;9.35;;
8268;SDS011;4174;48.304;16.364;2023-02-11T14:14:57;20.23;;;8.87;;
8268;SDS011;4174;48.304;16.364;2023-02-11T14:21:22;23.37;;;9.27;;
8268;SDS011;4174;48.304;16.364;2023-02-11T14:27:45;22.43;;;8.87;;
8268;SDS011;4174;48.304;16.364;2023-02-11T14:33:57;21.60;;;8.70;;
8268;SDS011;4174;48.304;16.364;2023-02-11T14:40:16;21.40;;;8.38;;
8268;SDS011;4174;48.304;16.364;2023-02-11T14:46:37;18.98;;;7.70;;
8268;SDS011;4174;48.304;16.364;2023-02-11T14:52:40;19.77;;;7.90;;
8268;SDS011;4174;48.304;16.364;2023-02-11T14:58:46;20.42;;;8.15;;
8268;SDS011;4174;48.304;16.364;2023-02-11T15:04:48;17.57;;;7.13;;
8268;SDS011;4174;48.304;16.364;2023-02-11T15:10:52;20.30;;;7.57;;
8268;SDS011;4174;48.304;16.364;2023-02-11T15:16:56;16.20;;;7.00;;
8268;SDS011;4174;48.304;16.364;2023-02-11T15:22:59;17.73;;;7.43;;
8268;SDS011;4174;48.304;16.364;2023-02-11T15:29:02;17.50;;;7.40;;
8268;SDS011;4174;48.304;16.364;2023-02-11T15:35:07;17.33;;;7.13;;
8268;SDS011;4174;48.304;16.364;2023-02-11T15:41:34;16.67;;;7.03;;
8268;SDS011;4174;48.304;16.364;2023-02-11T15:47:25;18.33;;;7.65;;
8268;SDS011;4174;48.304;16.364;2023-02-11T15:53:32;18.10;;;7.50;;
8268;SDS011;4174;48.304;16.364;2023-02-11T15:59:34;17.70;;;7.63;;
8268;SDS011;4174;48.304;16.364;2023-02-11T16:05:37;21.07;;;8.77;;
8268;SDS011;4174;48.304;16.364;2023-02-11T16:11:53;20.17;;;8.20;;
8268;SDS011;4174;48.304;16.364;2023-02-11T16:17:56;17.52;;;7.60;;
8268;SDS011;4174;48.304;16.364;2023-02-11T16:24:00;20.13;;;8.27;;
8268;SDS011;4174;48.304;16.364;2023-02-11T16:30:05;19.97;;;8.43;;
8268;SDS011;4174;48.304;16.364;2023-02-11T16:36:15;18.63;;;8.40;;
8268;SDS011;4174;48.304;16.364;2023-02-11T16:42:19;20.20;;;8.55;;
8268;SDS011;4174;48.304;16.364;2023-02-11T16:48:23;20.02;;;8.38;;
8268;SDS011;4174;48.304;16.364;2023-02-11T16:54:28;21.13;;;8.93;;
8268;SDS011;4174;48.304;16.364;2023-02-11T17:00:30;20.70;;;8.50;;
8268;SDS011;4174;48.304;16.364;2023-02-11T17:06:33;20.87;;;8.60;;
8268;SDS011;4174;48.304;16.364;2023-02-11T17:12:36;21.60;;;8.63;;
8268;SDS011;4174;48.304;16.364;2023-02-11T17:18:40;20.53;;;8.90;;
8268;SDS011;4174;48.304;16.364;2023-02-11T17:24:44;21.67;;;8.98;;
8268;SDS011;4174;48.304;16.364;2023-02-11T17:30:48;20.53;;;8.63;;
8268;SDS011;4174;48.304;16.364;2023-02-11T17:36:51;23.47;;;9.47;;
8268;SDS011;4174;48.304;16.364;2023-02-11T17:42:55;22.17;;;9.27;;
8268;SDS011;4174;48.304;16.364;2023-02-11T17:49:00;21.80;;;9.00;;
8268;SDS011;4174;48.304;16.364;2023-02-11T17:55:03;22.30;;;9.50;;
8268;SDS011;4174;48.304;16.364;2023-02-11T18:01:08;20.48;;;9.02;;
8268;SDS011;4174;48.304;16.364;2023-02-11T18:07:12;23.73;;;9.43;;
8268;SDS011;4174;48.304;16.364;2023-02-11T18:13:15;21.70;;;9.00;;
8268;SDS011;4174;48.304;16.364;2023-02-11T18:19:18;19.90;;;8.77;;
8268;SDS011;4174;48.304;16.364;2023-02-11T18:25:21;20.37;;;8.50;;
8268;SDS011;4174;48.304;16.364;2023-02-11T18:31:25;20.57;;;8.80;;
8268;SDS011;4174;48.304;16.364;2023-02-11T18:37:28;20.43;;;8.80;;
8268;SDS011;4174;48.304;16.364;2023-02-11T18:43:32;20.33;;;8.88;;
8268;SDS011;4174;48.304;16.364;2023-02-11T18:49:34;21.93;;;8.93;;
8268;SDS011;4174;48.304;16.364;2023-02-11T18:55:39;19.75;;;8.68;;
8268;SDS011;4174;48.304;16.364;2023-02-11T19:01:45;21.55;;;9.18;;
8268;SDS011;4174;48.304;16.364;2023-02-11T19:07:48;21.67;;;9.50;;
8268;SDS011;4174;48.304;16.364;2023-02-11T19:13:52;22.70;;;9.30;;
8268;SDS011;4174;48.304;16.364;2023-02-11T19:19:56;21.62;;;8.90;;
8268;SDS011;4174;48.304;16.364;2023-02-11T19:25:59;22.23;;;9.70;;
8268;SDS011;4174;48.304;16.364;2023-02-11T19:32:03;23.55;;;9.38;;
8268;SDS011;4174;48.304;16.364;2023-02-11T19:38:05;25.03;;;10.07;;
8268;SDS011;4174;48.304;16.364;2023-02-11T19:44:09;23.10;;;9.87;;
8268;SDS011;4174;48.304;16.364;2023-02-11T19:50:12;23.87;;;10.27;;
8268;SDS011;4174;48.304;16.364;2023-02-11T19:56:17;23.77;;;9.83;;
8268;SDS011;4174;48.304;16.364;2023-02-11T20:02:21;25.25;;;10.48;;
8268;SDS011;4174;48.304;16.364;2023-02-11T20:08:24;24.30;;;10.70;;
8268;SDS011;4174;48.304;16.364;2023-02-11T20:14:28;24.73;;;9.93;;
8268;SDS011;4174;48.304;16.364;2023-02-11T20:20:31;22.07;;;9.90;;
8268;SDS011;4174;48.304;16.364;2023-02-11T20:26:35;22.60;;;9.98;;
8268;SDS011;4174;48.304;16.364;2023-02-11T20:32:39;22.77;;;9.93;;
8268;SDS011;4174;48.304;16.364;2023-02-11T20:38:42;22.30;;;9.67;;
8268;SDS011;4174;48.304;16.364;2023-02-11T20:44:45;24.20;;;10.40;;
8268;SDS011;4174;48.304;16.364;2023-02-11T20:50:49;23.07;;;10.30;;
8268;SDS011;4174;48.304;16.364;2023-02-11T20:56:53;25.77;;;10.73;;
8268;SDS011;4174;48.304;16.364;2023-02-11T21:02:56;23.03;;;10.13;;
8268;SDS011;4174;48.304;16.364;2023-02-11T21:08:59;22.70;;;10.13;;
8268;SDS011;4174;48.304;16.364;2023-02-11T21:15:02;21.70;;;9.60;;
8268;SDS011;4174;48.304;16.364;2023-02-11T21:21:05;22.50;;;10.07;;
8268;SDS011;4174;48.304;16.364;2023-02-11T21:27:08;22.67;;;9.93;;
8268;SDS011;4174;48.304;16.364;2023-02-11T21:33:11;23.23;;;9.73;;
8268;SDS011;4174;48.304;16.364;2023-02-11T21:39:15;23.70;;;10.30;;
8268;SDS011;4174;48.304;16.364;2023-02-11T21:45:18;23.08;;;9.75;;
8268;SDS011;4174;48.304;16.364;2023-02-11T21:51:22;23.35;;;10.45;;
8268;SDS011;4174;48.304;16.364;2023-02-11T21:57:24;22.13;;;9.90;;
8268;SDS011;4174;48.304;16.364;2023-02-11T22:03:27;22.10;;;9.83;;
8268;SDS011;4174;48.304;16.364;2023-02-11T22:09:31;24.20;;;10.23;;
8268;SDS011;4174;48.304;16.364;2023-02-11T22:15:35;23.10;;;10.30;;
8268;SDS011;4174;48.304;16.364;2023-02-11T22:21:38;23.70;;;10.37;;
8268;SDS011;4174;48.304;16.364;2023-02-11T22:27:41;23.55;;;11.20;;
8268;SDS011;4174;48.304;16.364;2023-02-11T22:33:45;25.12;;;10.98;;
8268;SDS011;4174;48.304;16.364;2023-02-11T22:39:48;25.12;;;11.12;;
8268;SDS011;4174;48.304;16.364;2023-02-11T22:45:52;23.15;;;10.95;;
8268;SDS011;4174;48.304;16.364;2023-02-11T22:51:55;24.73;;;10.70;;
8268;SDS011;4174;48.304;16.364;2023-02-11T22:57:58;28.30;;;11.27;;
8268;SDS011;4174;48.304;16.364;2023-02-11T23:04:03;24.97;;;11.10;;
8268;SDS011;4174;48.304;16.364;2023-02-11T23:10:05;24.40;;;11.00;;
8268;SDS011;4174;48.304;16.364;2023-02-11T23:16:10;26.47;;;11.67;;
8268;SDS011;4174;48.304;16.364;2023-02-11T23:22:12;27.83;;;11.60;;
8268;SDS011;4174;48.304;16.364;2023-02-11T23:28:16;24.97;;;11.57;;
8268;SDS011;4174;48.304;16.364;2023-02-11T23:34:20;28.35;;;12.05;;
8268;SDS011;4174;48.304;16.364;2023-02-11T23:40:23;26.50;;;11.52;;
8268;SDS011;4174;48.304;16.364;2023-02-11T23:46:27;26.07;;;11.27;;
8268;SDS011;4174;48.304;16.364;2023-02-11T23:52:31;27.73;;;11.90;;
8268;SDS011;4174;48.304;16.364;2023-02-11T23:58:35;26.12;;;11.77;;
